Time;durP1;ratioP1;P1;durP2;ratioP2;P2;SDS_P1;SDS_P2;PMS_P1;PMS_P2;Temp;Humidity;BMP_temperature;BMP_pressure;BME280_temperature;BME280_humidity;BME280_pressure;Samples;Min_cycle;Max_cycle;Signal;HPM_P1;HPM_P2
2022/11/01 00:01:29;;;;;;;21.50;10.70;;;13.60;99.90;;;;;;5021188;28;20136;-62
2022/11/01 00:03:55;;;;;;;16.35;10.35;;;13.70;99.90;;;;;;5025319;28;20117;-62
2022/11/01 00:06:21;;;;;;;18.73;9.80;;;13.70;99.90;;;;;;5015349;28;20041;-62
2022/11/01 00:08:49;;;;;;;18.80;9.52;;;13.70;99.90;;;;;;5021717;28;20095;-65
2022/11/01 00:11:16;;;;;;;16.55;9.73;;;13.70;99.90;;;;;;5018436;28;20080;-62
2022/11/01 00:13:45;;;;;;;17.42;10.07;;;13.70;99.90;;;;;;5020810;28;20034;-62
2022/11/01 00:16:11;;;;;;;17.83;9.55;;;13.70;99.90;;;;;;5017533;28;20038;-65
2022/11/01 00:18:37;;;;;;;17.90;9.18;;;13.70;99.90;;;;;;5021463;28;20095;-62
2022/11/01 00:21:03;;;;;;;21.13;9.38;;;13.80;99.90;;;;;;5019255;28;20034;-64
2022/11/01 00:23:28;;;;;;;16.95;9.60;;;13.70;99.90;;;;;;5018729;28;20038;-65
2022/11/01 00:25:58;;;;;;;16.90;9.18;;;13.80;99.90;;;;;;5019882;28;20463;-62
2022/11/01 00:28:24;;;;;;;19.52;8.88;;;13.70;99.90;;;;;;5020709;28;20037;-64
2022/11/01 00:30:52;;;;;;;15.55;8.93;;;13.80;99.90;;;;;;5014132;28;20117;-62
2022/11/01 00:33:17;;;;;;;17.35;9.00;;;13.80;99.90;;;;;;5023622;28;20509;-62
2022/11/01 00:35:45;;;;;;;16.17;8.90;;;13.70;99.90;;;;;;5028085;28;20053;-64
2022/11/01 00:38:11;;;;;;;20.52;8.50;;;13.80;99.90;;;;;;5022980;28;20038;-62
2022/11/01 00:40:37;;;;;;;18.15;9.45;;;13.80;99.90;;;;;;5024985;28;20113;-62
2022/11/01 00:43:02;;;;;;;22.20;9.10;;;13.80;99.90;;;;;;5019498;28;20040;-62
2022/11/01 00:45:28;;;;;;;17.65;8.35;;;13.80;99.90;;;;;;5032806;28;20133;-62
2022/11/01 00:47:53;;;;;;;17.02;8.48;;;13.80;99.90;;;;;;5027192;28;20033;-64
2022/11/01 00:50:19;;;;;;;15.52;7.78;;;13.80;99.90;;;;;;5029044;28;20034;-61
2022/11/01 00:52:45;;;;;;;16.70;8.48;;;13.90;99.90;;;;;;5032134;28;20045;-61
2022/11/01 00:55:10;;;;;;;16.23;7.85;;;13.90;99.90;;;;;;5030459;28;20121;-62
2022/11/01 00:57:36;;;;;;;13.52;7.53;;;13.90;99.90;;;;;;5032621;28;20144;-62
2022/11/01 01:00:03;;;;;;;20.77;7.85;;;13.90;99.90;;;;;;5030919;28;20462;-62
2022/11/01 01:02:28;;;;;;;14.18;7.70;;;13.90;99.90;;;;;;5019661;28;20061;-62
2022/11/01 01:04:54;;;;;;;14.77;7.72;;;13.90;99.90;;;;;;5020658;28;20539;-62
2022/11/01 01:07:20;;;;;;;16.52;7.63;;;13.90;99.90;;;;;;5030099;28;20429;-63
2022/11/01 01:09:45;;;;;;;15.48;7.03;;;13.90;99.90;;;;;;5021414;28;20037;-63
2022/11/01 01:12:11;;;;;;;16.30;7.22;;;13.90;99.90;;;;;;5021314;28;20503;-63
2022/11/01 01:14:37;;;;;;;16.80;7.57;;;14.00;99.90;;;;;;5019756;28;20049;-63
2022/11/01 01:17:02;;;;;;;16.40;7.75;;;14.00;99.90;;;;;;5030630;28;20042;-63
2022/11/01 01:19:29;;;;;;;16.08;7.50;;;14.00;99.90;;;;;;5024280;28;20068;-63
2022/11/01 01:21:55;;;;;;;15.05;7.28;;;14.00;99.90;;;;;;5022147;28;20388;-63
2022/11/01 01:24:21;;;;;;;16.58;7.18;;;14.00;99.90;;;;;;5012798;28;20451;-63
2022/11/01 01:26:47;;;;;;;16.17;7.43;;;14.00;99.90;;;;;;5022676;28;20445;-63
2022/11/01 01:29:15;;;;;;;17.50;7.60;;;14.00;99.90;;;;;;5028099;28;20032;-63
2022/11/01 01:31:40;;;;;;;13.93;6.90;;;14.00;99.90;;;;;;5025947;28;20085;-63
2022/11/01 01:34:06;;;;;;;11.88;7.05;;;14.00;99.90;;;;;;5025533;28;20072;-63
2022/11/01 01:36:32;;;;;;;17.02;7.10;;;14.00;99.90;;;;;;5030796;28;20033;-63
2022/11/01 01:38:57;;;;;;;15.40;7.45;;;14.00;99.90;;;;;;5022646;28;20488;-63
2022/11/01 01:44:41;;;;;;;19.52;7.38;;;14.00;99.90;;;;;;5023684;28;20037;-63
2022/11/01 01:47:09;;;;;;;11.57;6.38;;;14.00;99.90;;;;;;5025765;28;20088;-63
2022/11/01 01:49:35;;;;;;;14.32;7.22;;;14.00;99.90;;;;;;5019207;28;20531;-63
2022/11/01 01:52:01;;;;;;;15.52;6.50;;;14.00;99.90;;;;;;5029872;28;20034;-63
2022/11/01 01:54:27;;;;;;;13.38;6.97;;;14.00;99.90;;;;;;5023422;28;20400;-63
2022/11/01 01:56:53;;;;;;;13.38;6.53;;;14.00;99.90;;;;;;5029608;28;20122;-63
2022/11/01 01:59:19;;;;;;;12.38;6.60;;;14.00;99.90;;;;;;5024244;28;20095;-63
2022/11/01 02:01:44;;;;;;;15.02;7.13;;;14.10;99.90;;;;;;5029593;28;20556;-63
2022/11/01 02:04:41;;;;;;;13.32;6.95;;;14.10;99.90;;;;;;5009271;28;20037;-63
2022/11/01 02:07:08;;;;;;;14.25;6.70;;;14.10;99.90;;;;;;5031043;28;20518;-63
2022/11/01 02:09:34;;;;;;;18.15;6.80;;;14.10;99.90;;;;;;5031237;28;20030;-63
2022/11/01 02:12:01;;;;;;;20.17;6.68;;;14.10;99.90;;;;;;5031360;28;20041;-63
2022/11/01 02:14:28;;;;;;;13.88;6.63;;;14.10;99.90;;;;;;5029496;28;20037;-63
2022/11/01 02:17:04;;;;;;;13.57;7.03;;;14.20;99.90;;;;;;5027080;28;20045;-63
2022/11/01 02:19:50;;;;;;;15.02;6.53;;;14.20;99.90;;;;;;5025462;28;20495;-63
2022/11/01 02:22:54;;;;;;;18.05;6.68;;;14.20;99.90;;;;;;5018948;28;20045;-63
2022/11/01 02:25:39;;;;;;;15.32;6.20;;;14.20;99.90;;;;;;5021283;28;20049;-63
2022/11/01 02:28:40;;;;;;;15.50;7.13;;;14.20;99.90;;;;;;5019250;28;20037;-63
2022/11/01 02:31:27;;;;;;;12.68;6.63;;;14.20;99.90;;;;;;5019264;28;20109;-63
2022/11/01 02:34:05;;;;;;;16.00;6.95;;;14.30;99.90;;;;;;5045424;28;20402;-63
2022/11/01 02:36:49;;;;;;;10.48;6.53;;;14.20;99.90;;;;;;5024031;28;20413;-63
2022/11/01 02:39:31;;;;;;;13.52;6.07;;;14.30;99.90;;;;;;5020678;28;20377;-63
2022/11/01 02:42:03;;;;;;;17.73;6.93;;;14.30;99.90;;;;;;5025196;28;20076;-63
2022/11/01 02:44:35;;;;;;;13.98;6.35;;;14.30;99.90;;;;;;5024815;28;20383;-63
2022/11/01 02:47:02;;;;;;;16.95;6.40;;;14.30;99.90;;;;;;5026259;28;20360;-63
2022/11/01 02:49:39;;;;;;;15.70;6.65;;;14.30;99.90;;;;;;5023929;28;20048;-63
2022/11/01 02:52:16;;;;;;;14.15;6.75;;;14.40;99.90;;;;;;5016719;28;20129;-63
2022/11/01 02:54:43;;;;;;;14.98;6.47;;;14.40;99.90;;;;;;5021316;28;20051;-63
2022/11/01 02:57:27;;;;;;;12.02;6.25;;;14.50;99.90;;;;;;5019514;28;20044;-63
2022/11/01 03:00:00;;;;;;;13.30;6.53;;;14.50;99.90;;;;;;5025439;28;20409;-63
2022/11/01 03:02:40;;;;;;;11.65;6.55;;;14.60;99.90;;;;;;5022283;28;20065;-63
2022/11/01 03:05:22;;;;;;;13.13;6.00;;;14.60;99.90;;;;;;5020036;28;20109;-63
2022/11/01 03:07:51;;;;;;;24.17;7.07;;;14.60;99.90;;;;;;5027158;28;20040;-63
2022/11/01 03:10:20;;;;;;;14.13;6.28;;;14.70;99.90;;;;;;5025840;28;20116;-63
2022/11/01 03:13:06;;;;;;;15.63;6.22;;;14.70;99.90;;;;;;5022574;28;20408;-63
2022/11/01 03:15:38;;;;;;;14.88;6.68;;;14.80;99.90;;;;;;5024349;28;20406;-63
2022/11/01 03:18:11;;;;;;;15.55;6.63;;;14.80;99.90;;;;;;5025143;28;20446;-63
2022/11/01 03:20:53;;;;;;;15.50;5.93;;;14.80;99.90;;;;;;5030323;28;20439;-63
2022/11/01 03:23:33;;;;;;;12.10;6.72;;;14.90;99.90;;;;;;5024958;28;20044;-63
2022/11/01 03:26:06;;;;;;;11.30;5.93;;;15.00;99.90;;;;;;5025293;28;20499;-63
2022/11/01 03:28:47;;;;;;;10.48;5.90;;;15.00;99.90;;;;;;5020752;28;20286;-64
2022/11/01 03:31:23;;;;;;;10.98;5.72;;;15.00;99.90;;;;;;5016356;28;20033;-63
2022/11/01 03:33:56;;;;;;;16.27;6.18;;;15.20;99.90;;;;;;5020940;28;20497;-63
2022/11/01 03:36:26;;;;;;;14.48;6.45;;;15.10;99.90;;;;;;5024006;28;20050;-63
2022/11/01 03:39:01;;;;;;;11.57;6.28;;;15.20;99.90;;;;;;5023680;28;20440;-63
2022/11/01 03:41:32;;;;;;;19.60;6.18;;;15.10;99.90;;;;;;5019632;28;20107;-63
2022/11/01 03:43:59;;;;;;;14.35;6.07;;;15.10;99.90;;;;;;5028388;28;20088;-63
2022/11/01 03:46:25;;;;;;;13.77;5.57;;;15.10;99.90;;;;;;5030195;28;20034;-63
2022/11/01 03:48:50;;;;;;;13.18;6.25;;;15.10;99.90;;;;;;5019957;28;20370;-63
2022/11/01 03:51:16;;;;;;;14.70;6.75;;;15.20;99.90;;;;;;5029710;28;20037;-63
2022/11/01 03:53:42;;;;;;;12.10;6.05;;;15.20;99.90;;;;;;5023884;28;20041;-63
2022/11/01 03:56:08;;;;;;;12.35;5.80;;;15.20;99.90;;;;;;5021020;28;20033;-63
2022/11/01 03:58:40;;;;;;;12.57;5.57;;;15.20;99.90;;;;;;5021219;28;20037;-63
2022/11/01 04:01:07;;;;;;;11.38;5.63;;;15.30;99.90;;;;;;5024658;28;20041;-63
2022/11/01 04:03:33;;;;;;;15.48;5.82;;;15.30;99.90;;;;;;5024554;28;20037;-64
2022/11/01 04:05:59;;;;;;;15.68;6.68;;;15.20;99.90;;;;;;5021262;28;20400;-64
2022/11/01 04:08:24;;;;;;;11.80;5.75;;;15.30;99.90;;;;;;5028845;28;20037;-63
2022/11/01 04:10:50;;;;;;;9.63;5.07;;;15.20;99.90;;;;;;5023992;28;20129;-64
2022/11/01 04:13:15;;;;;;;12.48;5.90;;;15.30;99.90;;;;;;5019175;28;20041;-64
2022/11/01 04:21:23;;;;;;;11.05;6.03;;;15.30;99.90;;;;;;5024703;28;20046;-64
2022/11/01 04:23:49;;;;;;;16.65;5.93;;;15.30;99.90;;;;;;5027887;28;20468;-65
2022/11/01 04:26:17;;;;;;;10.15;5.70;;;15.30;99.90;;;;;;5020013;28;20079;-64
2022/11/01 04:28:55;;;;;;;8.50;4.97;;;15.30;99.90;;;;;;5024476;28;20088;-64
2022/11/01 04:31:26;;;;;;;12.30;5.32;;;15.30;99.90;;;;;;5026834;28;20535;-64
2022/11/01 04:33:52;;;;;;;15.63;6.05;;;15.30;99.90;;;;;;5045426;28;20045;-62
2022/11/01 04:36:18;;;;;;;13.20;5.72;;;15.30;99.90;;;;;;5024540;28;20063;-62
2022/11/01 04:38:43;;;;;;;10.90;5.97;;;15.30;99.90;;;;;;5032273;28;20033;-64
2022/11/01 04:41:09;;;;;;;11.75;5.82;;;15.30;99.90;;;;;;5024170;28;20041;-64
2022/11/01 04:43:35;;;;;;;13.50;5.70;;;15.30;99.90;;;;;;5018589;28;20050;-64
2022/11/01 04:46:01;;;;;;;11.40;5.68;;;15.30;99.90;;;;;;5029415;28;20044;-64
2022/11/01 04:48:27;;;;;;;9.55;5.57;;;15.30;99.90;;;;;;5020845;28;20463;-64
2022/11/01 04:50:52;;;;;;;13.68;5.93;;;15.30;99.90;;;;;;5022465;28;20087;-63
2022/11/01 04:53:18;;;;;;;12.38;5.70;;;15.40;99.90;;;;;;5020834;28;20049;-62
2022/11/01 04:55:44;;;;;;;11.48;5.57;;;15.40;99.90;;;;;;5030269;28;20073;-65
2022/11/01 04:58:09;;;;;;;10.57;5.25;;;15.40;99.90;;;;;;5031305;28;20108;-64
2022/11/01 05:00:36;;;;;;;11.32;5.35;;;15.40;99.90;;;;;;5029958;28;20038;-64
2022/11/01 05:03:07;;;;;;;10.70;5.55;;;15.40;99.90;;;;;;5025527;28;20092;-64
2022/11/01 05:05:34;;;;;;;8.77;5.13;;;15.40;99.90;;;;;;5024774;28;20070;-64
2022/11/01 05:08:08;;;;;;;11.18;5.40;;;15.40;99.90;;;;;;5021240;28;20084;-64
2022/11/01 05:10:35;;;;;;;10.50;5.20;;;15.40;99.90;;;;;;5030252;28;20136;-64
2022/11/01 05:13:01;;;;;;;13.90;5.32;;;15.40;99.90;;;;;;5018332;28;20051;-64
2022/11/01 05:15:27;;;;;;;12.90;5.43;;;15.50;99.90;;;;;;5030006;28;20045;-64
2022/11/01 05:17:52;;;;;;;9.88;5.30;;;15.50;99.90;;;;;;5022381;28;20045;-63
2022/11/01 05:20:19;;;;;;;11.63;5.72;;;15.40;99.90;;;;;;5022773;28;20091;-65
2022/11/01 05:22:44;;;;;;;12.27;5.38;;;15.40;99.90;;;;;;5019678;28;20042;-65
2022/11/01 05:25:10;;;;;;;13.15;5.38;;;15.40;99.90;;;;;;5031571;28;20495;-65
2022/11/01 05:27:37;;;;;;;12.23;5.47;;;15.40;99.90;;;;;;5032673;28;20127;-64
2022/11/01 05:30:04;;;;;;;8.10;4.55;;;15.50;99.90;;;;;;5021169;28;20037;-64
2022/11/01 05:32:29;;;;;;;11.20;4.20;;;15.40;99.90;;;;;;5026450;28;20057;-63
2022/11/01 05:34:55;;;;;;;11.77;3.75;;;15.50;99.90;;;;;;5022863;28;20495;-64
2022/11/01 05:37:21;;;;;;;6.68;2.30;;;15.50;99.90;;;;;;5025122;28;20038;-64
2022/11/01 05:39:46;;;;;;;5.10;2.28;;;15.50;99.90;;;;;;5019803;28;20444;-64
2022/11/01 05:42:12;;;;;;;7.10;2.05;;;15.50;99.90;;;;;;5024437;28;20128;-64
2022/11/01 05:44:37;;;;;;;5.38;1.80;;;15.40;99.90;;;;;;5027482;28;20452;-62
2022/11/01 05:47:04;;;;;;;5.95;1.60;;;15.40;99.90;;;;;;5024478;28;20040;-64
2022/11/01 05:49:30;;;;;;;4.90;1.35;;;15.30;99.90;;;;;;5025970;28;20036;-61
2022/11/01 05:51:56;;;;;;;5.68;1.10;;;15.20;99.90;;;;;;5026857;28;20392;-63
2022/11/01 05:54:21;;;;;;;3.38;1.30;;;15.10;99.90;;;;;;5027519;28;20041;-64
2022/11/01 05:56:47;;;;;;;8.25;1.52;;;15.00;99.90;;;;;;5022533;28;20409;-64
2022/11/01 05:59:13;;;;;;;8.07;1.35;;;14.90;99.90;;;;;;5024397;28;20040;-64
2022/11/01 06:01:39;;;;;;;4.43;1.48;;;14.90;99.90;;;;;;5023548;28;20045;-64
2022/11/01 06:04:04;;;;;;;8.27;1.52;;;14.90;99.90;;;;;;5026138;28;20049;-64
2022/11/01 06:06:31;;;;;;;4.65;1.45;;;14.80;99.90;;;;;;5024563;28;20599;-63
2022/11/01 06:08:57;;;;;;;5.20;1.60;;;14.80;99.90;;;;;;5025805;28;20331;-63
2022/11/01 06:11:25;;;;;;;4.50;1.85;;;14.70;99.90;;;;;;5021369;28;20041;-64
2022/11/01 06:13:54;;;;;;;3.53;1.40;;;14.70;99.90;;;;;;5023578;28;20079;-61
2022/11/01 06:16:20;;;;;;;3.80;1.67;;;14.70;99.90;;;;;;5034940;28;20042;-64
2022/11/01 06:18:46;;;;;;;6.70;1.83;;;14.70;99.90;;;;;;5029922;28;20052;-65
2022/11/01 06:21:12;;;;;;;5.03;1.70;;;14.60;99.90;;;;;;5024261;28;20022;-64
2022/11/01 06:23:37;;;;;;;6.78;1.70;;;14.70;99.90;;;;;;5019684;28;20045;-64
2022/11/01 06:26:04;;;;;;;5.05;1.70;;;14.70;99.90;;;;;;5028812;28;20504;-64
2022/11/01 06:28:30;;;;;;;4.82;1.80;;;14.60;99.90;;;;;;5030295;28;20432;-64
2022/11/01 06:31:00;;;;;;;4.80;1.75;;;14.60;99.90;;;;;;5030312;28;20033;-64
2022/11/01 06:33:26;;;;;;;6.13;1.85;;;14.50;99.90;;;;;;5026490;28;20049;-64
2022/11/01 06:35:52;;;;;;;2.90;1.42;;;14.60;99.90;;;;;;5027219;28;20125;-63
2022/11/01 06:38:17;;;;;;;4.85;1.60;;;14.50;99.90;;;;;;5021670;28;20040;-64
2022/11/01 06:40:45;;;;;;;4.75;1.48;;;14.40;99.90;;;;;;5026548;28;20130;-64
2022/11/01 06:43:11;;;;;;;6.45;1.50;;;14.40;99.90;;;;;;5025980;28;20042;-65
2022/11/01 06:45:36;;;;;;;6.88;1.85;;;14.40;99.90;;;;;;5021112;28;20034;-65
2022/11/01 06:48:02;;;;;;;4.28;1.50;;;14.40;99.90;;;;;;5022573;28;20052;-65
2022/11/01 06:50:27;;;;;;;5.32;1.17;;;14.30;99.90;;;;;;5021232;28;20041;-64
2022/11/01 06:52:57;;;;;;;6.70;1.50;;;14.30;99.90;;;;;;5028830;28;20420;-65
2022/11/01 06:55:26;;;;;;;7.32;1.40;;;14.30;99.90;;;;;;5018863;28;20052;-65
2022/11/01 06:57:54;;;;;;;5.63;1.08;;;14.20;99.90;;;;;;5029184;28;20049;-65
2022/11/01 07:00:20;;;;;;;7.18;1.20;;;14.20;99.90;;;;;;5027616;28;20451;-65
2022/11/01 07:02:46;;;;;;;3.17;1.17;;;14.10;99.90;;;;;;5028348;28;20038;-64
2022/11/01 07:05:11;;;;;;;4.93;1.48;;;14.00;99.90;;;;;;5027528;28;20030;-65
2022/11/01 07:07:37;;;;;;;4.18;1.50;;;14.00;99.90;;;;;;5026278;28;20073;-64
2022/11/01 07:10:04;;;;;;;7.28;1.42;;;14.00;99.90;;;;;;5024641;28;20044;-64
2022/11/01 07:12:29;;;;;;;4.50;1.38;;;13.90;99.90;;;;;;5029866;28;20041;-64
2022/11/01 07:14:55;;;;;;;4.82;1.42;;;13.90;99.90;;;;;;5028361;28;20404;-64
2022/11/01 07:17:20;;;;;;;2.92;1.42;;;13.90;99.90;;;;;;5027772;28;20044;-64
2022/11/01 07:19:46;;;;;;;5.93;1.50;;;13.90;99.90;;;;;;5025863;28;20071;-64
2022/11/01 07:22:13;;;;;;;4.95;1.52;;;13.90;99.90;;;;;;5023927;28;20534;-63
2022/11/01 07:24:38;;;;;;;2.15;1.17;;;13.90;99.90;;;;;;5027257;28;20072;-64
2022/11/01 07:27:04;;;;;;;6.13;1.60;;;14.00;99.90;;;;;;5028427;28;20029;-64
2022/11/01 07:29:29;;;;;;;5.88;1.48;;;14.00;99.90;;;;;;5028003;28;20117;-64
2022/11/01 07:31:55;;;;;;;5.55;1.50;;;14.00;99.90;;;;;;5028226;28;20045;-64
2022/11/01 07:34:21;;;;;;;6.93;1.40;;;14.10;99.90;;;;;;5026528;28;20045;-63
2022/11/01 07:36:46;;;;;;;5.15;1.10;;;14.10;99.90;;;;;;5029291;28;20073;-63
2022/11/01 07:39:12;;;;;;;6.80;1.48;;;14.10;99.90;;;;;;5028620;28;20083;-63
2022/11/01 07:41:37;;;;;;;7.60;1.40;;;14.10;99.90;;;;;;5026587;28;20048;-63
2022/11/01 07:44:03;;;;;;;10.35;1.60;;;14.10;99.90;;;;;;5030077;28;20037;-64
2022/11/01 07:46:30;;;;;;;9.05;1.40;;;14.10;99.90;;;;;;5030527;28;20029;-64
2022/11/01 07:48:56;;;;;;;8.07;1.55;;;14.10;99.90;;;;;;5010210;28;20037;-64
2022/11/01 07:51:21;;;;;;;8.13;1.67;;;14.10;99.90;;;;;;5023381;28;20503;-64
2022/11/01 07:53:47;;;;;;;10.90;1.90;;;14.10;99.90;;;;;;5027463;28;20033;-64
2022/11/01 07:56:12;;;;;;;13.18;1.85;;;14.10;99.90;;;;;;5026362;28;20038;-64
2022/11/01 07:58:42;;;;;;;6.93;1.52;;;14.00;99.90;;;;;;5025520;28;20119;-64
2022/11/01 08:01:08;;;;;;;12.93;2.17;;;14.00;99.90;;;;;;5026273;28;20049;-64
2022/11/01 08:03:34;;;;;;;9.98;1.88;;;14.00;99.90;;;;;;5025949;28;20042;-64
2022/11/01 08:05:59;;;;;;;11.90;2.25;;;13.90;99.90;;;;;;5023872;28;20041;-64
2022/11/01 08:08:25;;;;;;;12.77;1.98;;;14.00;99.90;;;;;;5027083;28;20389;-64
2022/11/01 08:10:50;;;;;;;12.70;2.72;;;14.00;99.90;;;;;;5026911;28;20044;-64
2022/11/01 08:13:22;;;;;;;7.57;1.92;;;14.10;99.90;;;;;;5025807;28;20578;-64
2022/11/01 08:15:49;;;;;;;11.40;2.30;;;14.10;99.90;;;;;;5024833;28;20383;-64
2022/11/01 08:18:16;;;;;;;16.15;2.92;;;14.10;99.90;;;;;;5028161;28;20051;-64
2022/11/01 08:20:42;;;;;;;11.48;2.40;;;14.10;99.90;;;;;;5014949;28;20038;-64
2022/11/01 08:23:09;;;;;;;18.20;2.88;;;14.20;99.90;;;;;;5024359;28;20464;-64
2022/11/01 08:25:37;;;;;;;16.70;2.97;;;14.30;99.90;;;;;;5028997;28;20072;-64
2022/11/01 08:28:09;;;;;;;9.38;2.08;;;14.40;99.90;;;;;;5029576;28;20039;-64
2022/11/01 08:30:36;;;;;;;11.98;2.50;;;14.50;99.90;;;;;;5026843;28;20560;-64
2022/11/01 08:33:02;;;;;;;16.40;2.88;;;14.50;99.90;;;;;;5023249;28;20053;-64
2022/11/01 08:35:29;;;;;;;17.85;2.78;;;14.50;99.90;;;;;;5019419;28;20037;-64
2022/11/01 08:37:55;;;;;;;14.23;2.35;;;14.50;99.90;;;;;;5028131;28;20132;-64
2022/11/01 08:40:21;;;;;;;13.25;2.70;;;14.40;99.90;;;;;;5027564;28;20124;-63
2022/11/01 08:42:47;;;;;;;12.85;2.33;;;14.40;99.90;;;;;;5028131;28;20052;-63
2022/11/01 08:45:13;;;;;;;11.30;2.60;;;14.40;99.90;;;;;;5022945;28;20025;-63
2022/11/01 08:47:40;;;;;;;13.05;2.55;;;14.40;99.90;;;;;;5021975;28;20037;-63
2022/11/01 08:50:07;;;;;;;19.30;2.80;;;14.30;99.90;;;;;;5027443;28;20042;-63
2022/11/01 08:52:33;;;;;;;21.70;2.70;;;14.30;99.90;;;;;;5023202;28;20072;-63
2022/11/01 08:54:58;;;;;;;17.60;4.13;;;14.40;99.90;;;;;;5020806;28;20488;-63
2022/11/01 08:57:24;;;;;;;15.73;2.92;;;14.30;99.90;;;;;;5020247;28;20542;-63
2022/11/01 08:59:49;;;;;;;13.23;2.58;;;14.40;99.90;;;;;;5018020;28;20088;-63
2022/11/01 09:02:15;;;;;;;17.58;2.83;;;14.40;99.90;;;;;;5025254;28;20476;-63
2022/11/01 09:04:41;;;;;;;13.43;3.08;;;14.40;99.90;;;;;;5033558;28;20037;-63
2022/11/01 09:07:06;;;;;;;21.65;3.25;;;14.40;99.90;;;;;;5020646;28;20044;-63
2022/11/01 09:09:32;;;;;;;18.27;3.10;;;14.40;99.90;;;;;;5025162;28;20033;-63
2022/11/01 09:11:58;;;;;;;14.23;2.90;;;14.40;99.90;;;;;;5031681;28;20041;-63
2022/11/01 09:14:25;;;;;;;18.45;3.03;;;14.40;99.90;;;;;;5023887;28;20084;-63
2022/11/01 09:16:50;;;;;;;10.43;2.13;;;14.40;99.90;;;;;;5026742;28;20052;-63
2022/11/01 09:19:16;;;;;;;17.05;2.72;;;14.40;99.90;;;;;;5033277;28;20033;-63
2022/11/01 09:21:43;;;;;;;12.52;2.25;;;14.40;99.90;;;;;;5029448;28;20031;-63
2022/11/01 09:24:10;;;;;;;19.38;3.13;;;14.50;99.90;;;;;;5019305;28;20116;-63
2022/11/01 09:26:36;;;;;;;16.73;3.05;;;14.50;99.90;;;;;;5019846;28;20052;-63
2022/11/01 09:29:02;;;;;;;15.65;2.80;;;14.50;99.90;;;;;;5030150;28;20042;-63
2022/11/01 09:31:29;;;;;;;17.35;2.70;;;14.50;99.90;;;;;;5020485;28;20041;-63
2022/11/01 09:33:56;;;;;;;13.80;2.55;;;14.50;99.90;;;;;;5033073;28;20232;-63
2022/11/01 09:36:22;;;;;;;14.52;2.65;;;14.50;99.90;;;;;;5032387;28;20075;-63
2022/11/01 09:38:48;;;;;;;17.00;2.97;;;14.40;99.90;;;;;;5030088;28;20049;-63
2022/11/01 09:41:37;;;;;;;13.45;2.70;;;14.50;99.90;;;;;;5025086;28;20040;-63
2022/11/01 09:44:06;;;;;;;20.05;3.25;;;14.50;99.90;;;;;;5021851;28;20428;-63
2022/11/01 09:46:44;;;;;;;20.20;3.13;;;14.50;99.90;;;;;;5028216;28;20073;-63
2022/11/01 09:49:17;;;;;;;14.50;2.97;;;14.60;99.90;;;;;;5027933;28;20430;-63
2022/11/01 09:51:42;;;;;;;12.05;2.67;;;14.60;99.90;;;;;;5021249;28;20045;-63
2022/11/01 09:54:09;;;;;;;14.43;2.88;;;14.60;99.90;;;;;;5024841;28;20045;-63
2022/11/01 09:57:03;;;;;;;15.13;2.85;;;14.60;99.90;;;;;;5024190;28;20093;-63
2022/11/01 09:59:37;;;;;;;12.95;2.75;;;14.70;99.90;;;;;;5021239;28;20444;-63
2022/11/01 10:02:21;;;;;;;14.95;3.25;;;14.70;99.90;;;;;;5026843;28;20038;-63
2022/11/01 10:05:00;;;;;;;16.60;2.90;;;14.80;99.90;;;;;;5015779;28;20049;-63
2022/11/01 10:08:00;;;;;;;13.55;3.03;;;14.80;99.90;;;;;;5020949;28;20091;-63
2022/11/01 10:10:49;;;;;;;15.93;2.42;;;14.80;99.90;;;;;;5032248;28;20037;-63
2022/11/01 10:13:49;;;;;;;16.50;2.55;;;14.80;99.90;;;;;;5026872;28;20080;-63
2022/11/01 10:16:37;;;;;;;16.85;2.88;;;14.80;99.90;;;;;;5024456;28;20045;-63
2022/11/01 10:19:03;;;;;;;13.13;2.72;;;14.80;99.90;;;;;;5022168;28;20132;-63
2022/11/01 10:21:55;;;;;;;14.55;2.40;;;14.80;99.90;;;;;;5018509;28;20095;-63
2022/11/01 10:24:36;;;;;;;13.40;2.90;;;14.90;99.90;;;;;;5022928;28;20521;-63
2022/11/01 10:27:12;;;;;;;17.45;2.50;;;14.90;99.90;;;;;;5026795;28;20115;-63
2022/11/01 10:29:54;;;;;;;18.58;2.95;;;14.90;99.90;;;;;;5028440;28;20069;-63
2022/11/01 10:32:29;;;;;;;;;;;14.90;99.90;;;;;;5026220;28;20049;-63
2022/11/01 10:35:03;;;;;;;15.02;2.78;;;15.00;99.90;;;;;;5024070;28;19921;-63
2022/11/01 10:37:41;;;;;;;17.23;3.45;;;15.00;99.90;;;;;;5030303;28;20037;-63
2022/11/01 10:40:17;;;;;;;15.45;2.95;;;15.00;99.90;;;;;;5031388;28;20155;-63
2022/11/01 10:42:43;;;;;;;13.02;2.72;;;15.10;99.90;;;;;;5031626;28;20123;-63
2022/11/01 10:45:16;;;;;;;16.90;3.05;;;15.10;99.90;;;;;;5026980;28;20061;-63
2022/11/01 10:47:44;;;;;;;17.70;2.90;;;15.10;99.90;;;;;;5030547;28;20088;-63
2022/11/01 10:50:20;;;;;;;21.52;3.22;;;15.10;99.90;;;;;;5028138;28;20037;-63
2022/11/01 10:53:03;;;;;;;11.20;2.50;;;15.10;99.90;;;;;;5018650;28;20175;-63
2022/11/01 10:55:31;;;;;;;;;;;15.10;99.90;;;;;;5026302;28;20511;-63
2022/11/01 10:58:26;;;;;;;15.80;2.85;;;15.20;99.90;;;;;;5029579;28;19917;-63
2022/11/01 11:00:53;;;;;;;16.83;3.05;;;15.20;99.90;;;;;;5014560;28;20053;-63
2022/11/01 11:03:23;;;;;;;20.77;3.50;;;15.20;99.90;;;;;;5024876;28;20040;-63
2022/11/01 11:05:51;;;;;;;17.02;2.78;;;15.30;99.90;;;;;;5029457;28;20484;-64
2022/11/01 11:08:20;;;;;;;15.73;2.67;;;15.30;99.90;;;;;;5023637;28;20401;-64
2022/11/01 11:10:47;;;;;;;22.25;3.72;;;15.30;99.90;;;;;;5025406;28;20045;-64
2022/11/01 11:13:15;;;;;;;16.23;2.67;;;15.40;99.90;;;;;;5016346;28;20103;-64
2022/11/01 11:15:47;;;;;;;16.83;3.03;;;15.50;99.90;;;;;;5024581;28;20061;-64
2022/11/01 11:18:42;;;;;;;15.75;2.95;;;15.60;99.90;;;;;;5028867;28;20511;-64
2022/11/01 11:21:10;;;;;;;16.80;3.00;;;15.70;99.90;;;;;;5012576;28;20052;-64
2022/11/01 11:23:41;;;;;;;19.63;3.05;;;15.80;99.90;;;;;;5030025;28;20045;-64
2022/11/01 11:26:15;;;;;;;18.60;3.75;;;15.80;99.90;;;;;;5031243;28;20033;-64
2022/11/01 11:28:47;;;;;;;17.25;3.00;;;15.90;99.90;;;;;;5022350;28;20397;-64
2022/11/01 11:31:25;;;;;;;15.52;2.63;;;15.90;99.90;;;;;;5018566;28;20042;-62
2022/11/01 11:33:55;;;;;;;14.73;2.65;;;15.90;99.90;;;;;;5028809;28;20071;-65
2022/11/01 11:36:28;;;;;;;13.02;2.33;;;16.00;99.90;;;;;;5029305;28;20037;-63
2022/11/01 11:38:54;;;;;;;;;;;16.00;99.90;;;;;;5019214;28;20033;-62
2022/11/01 11:41:28;;;;;;;12.95;2.10;;;16.10;99.90;;;;;;5017927;28;19918;-64
2022/11/01 11:43:54;;;;;;;19.75;2.60;;;16.10;99.90;;;;;;5027795;28;20033;-62
2022/11/01 11:46:22;;;;;;;16.65;3.05;;;16.20;99.90;;;;;;5015422;28;20041;-64
2022/11/01 11:49:00;;;;;;;17.48;2.75;;;16.30;99.90;;;;;;5027136;28;20045;-63
2022/11/01 11:51:31;;;;;;;10.68;2.67;;;16.30;99.90;;;;;;5019655;28;20659;-64
2022/11/01 11:54:12;;;;;;;12.30;2.80;;;16.40;99.90;;;;;;5018324;28;20034;-64
2022/11/01 11:56:38;;;;;;;12.93;2.58;;;16.40;99.90;;;;;;5030777;28;20459;-64
2022/11/01 11:59:12;;;;;;;11.50;2.10;;;16.50;99.90;;;;;;5017954;28;20076;-63
2022/11/01 12:01:38;;;;;;;12.07;2.15;;;16.40;99.90;;;;;;5016644;28;20073;-64
2022/11/01 12:04:12;;;;;;;11.98;2.60;;;16.50;99.90;;;;;;5023241;28;20092;-62
2022/11/01 12:06:42;;;;;;;11.85;2.45;;;16.50;99.90;;;;;;5021673;28;20046;-64
2022/11/01 12:09:36;;;;;;;10.32;2.55;;;16.60;99.90;;;;;;5019621;28;20037;-64
2022/11/01 12:12:07;;;;;;;10.82;2.30;;;16.60;99.90;;;;;;5024521;28;20041;-64
2022/11/01 12:14:37;;;;;;;13.27;2.53;;;16.60;99.90;;;;;;5030601;28;20041;-64
2022/11/01 12:17:22;;;;;;;10.52;2.20;;;16.60;99.90;;;;;;5022703;28;20042;-64
2022/11/01 12:19:48;;;;;;;11.00;2.42;;;16.60;99.90;;;;;;5022654;28;20083;-64
2022/11/01 12:22:14;;;;;;;10.63;2.17;;;16.60;99.90;;;;;;5026625;28;20069;-64
2022/11/01 12:24:49;;;;;;;10.45;2.83;;;16.60;99.90;;;;;;5027697;28;20046;-64
2022/11/01 12:27:22;;;;;;;11.45;2.50;;;16.60;99.90;;;;;;5013058;28;20076;-64
2022/11/01 12:29:59;;;;;;;11.55;2.60;;;16.70;99.90;;;;;;5026940;28;20447;-64
2022/11/01 12:32:30;;;;;;;10.15;2.58;;;16.60;99.90;;;;;;5023751;28;20462;-64
2022/11/01 12:35:00;;;;;;;12.93;2.30;;;16.60;99.90;;;;;;5021150;28;20436;-64
2022/11/01 12:37:58;;;;;;;14.27;2.60;;;16.60;99.90;;;;;;5028434;28;20092;-64
2022/11/01 12:40:27;;;;;;;9.77;2.97;;;16.70;99.90;;;;;;5027775;28;20033;-64
2022/11/01 12:42:58;;;;;;;10.93;2.55;;;16.70;99.90;;;;;;5029792;28;20397;-64
2022/11/01 12:45:45;;;;;;;10.32;2.20;;;16.70;99.90;;;;;;5029570;28;20080;-64
2022/11/01 12:48:20;;;;;;;10.20;1.88;;;16.70;99.90;;;;;;5032614;28;20078;-62
2022/11/01 12:50:56;;;;;;;10.40;2.20;;;16.70;99.90;;;;;;5025477;28;20504;-64
2022/11/01 12:53:41;;;;;;;13.43;2.40;;;16.70;99.90;;;;;;5022203;28;20042;-64
2022/11/01 12:56:06;;;;;;;11.68;2.20;;;16.80;99.90;;;;;;5029075;28;20041;-65
2022/11/01 12:58:32;;;;;;;12.07;2.42;;;16.70;99.90;;;;;;5027002;28;20056;-64
2022/11/01 13:01:01;;;;;;;14.63;2.45;;;16.70;99.90;;;;;;5033365;28;20029;-64
2022/11/01 13:03:59;;;;;;;13.75;1.90;;;16.70;99.90;;;;;;5030719;28;20042;-65